createdAt,value
2022-10-10T00:03:42.257Z,8.08
2022-10-10T00:13:42.217Z,7.91
2022-10-10T00:23:42.230Z,7.72
2022-10-10T00:33:42.226Z,7.67
2022-10-10T00:43:42.222Z,7.63
2022-10-10T00:53:42.186Z,7.54
2022-10-10T01:03:42.233Z,7.43
2022-10-10T01:13:42.217Z,7.39
2022-10-10T01:23:42.224Z,7.36
2022-10-10T01:33:42.180Z,7.21
2022-10-10T01:43:42.215Z,7.14
2022-10-10T01:53:42.183Z,7.19
2022-10-10T02:03:42.204Z,7.13
2022-10-10T02:13:42.170Z,7.07
2022-10-10T02:23:42.214Z,7.04
2022-10-10T02:33:42.188Z,7.05
2022-10-10T02:43:42.193Z,7
2022-10-10T02:53:42.189Z,7
2022-10-10T03:03:42.181Z,6.97
2022-10-10T03:13:42.169Z,6.96
2022-10-10T03:23:42.201Z,7.03
2022-10-10T03:33:42.170Z,7.05
2022-10-10T03:43:42.212Z,7.07
2022-10-10T03:53:42.136Z,7.06
2022-10-10T04:03:42.178Z,7.11
2022-10-10T04:13:42.161Z,7.14
2022-10-10T04:23:42.197Z,7.13
2022-10-10T04:33:42.157Z,7.07
2022-10-10T04:43:42.152Z,7.06
2022-10-10T04:53:44.007Z,7.1
2022-10-10T05:03:42.192Z,7.11
2022-10-10T05:13:42.153Z,7.12
2022-10-10T05:23:42.178Z,7.13
2022-10-10T05:33:42.237Z,7.12
2022-10-10T05:43:42.149Z,7.14
2022-10-10T05:53:42.153Z,7.24
2022-10-10T06:03:42.272Z,7.4
2022-10-10T06:13:42.127Z,7.58
2022-10-10T06:23:42.160Z,7.87
2022-10-10T06:33:42.129Z,8.09
2022-10-10T06:43:42.143Z,8.72
2022-10-10T06:53:42.118Z,8.93
2022-10-10T07:03:42.142Z,9.29
2022-10-10T07:13:42.138Z,9.78
2022-10-10T07:23:42.152Z,10.49
2022-10-10T07:33:44.973Z,11.27
2022-10-10T07:43:42.128Z,11.38
2022-10-10T07:53:42.102Z,11.81
2022-10-10T08:03:42.164Z,12.52
2022-10-10T08:13:42.090Z,12.84
2022-10-10T08:23:42.090Z,12.74
2022-10-10T08:33:42.071Z,12.85
2022-10-10T08:43:42.079Z,12.99
2022-10-10T08:53:42.062Z,13.22
2022-10-10T09:03:42.071Z,13.56
2022-10-10T09:13:42.043Z,13.67
2022-10-10T09:23:42.049Z,14.07
2022-10-10T09:33:42.027Z,14.57
2022-10-10T09:43:42.022Z,14.89
2022-10-10T09:53:42.029Z,16.02
2022-10-10T10:03:42.023Z,16.45
2022-10-10T10:13:41.990Z,16.84
2022-10-10T10:23:42.019Z,17.41
2022-10-10T10:33:41.969Z,17.76
2022-10-10T10:43:42.084Z,18.06
2022-10-10T10:53:41.961Z,18.74
2022-10-10T11:05:15.502Z,19.12
2022-10-10T11:13:42.003Z,19.66
2022-10-10T11:23:41.947Z,18.98
2022-10-10T11:33:41.924Z,17.54
2022-10-10T11:43:41.917Z,17.14
2022-10-10T11:53:41.886Z,17.23
2022-10-10T12:03:41.920Z,17.27
2022-10-10T12:13:41.905Z,17.36
2022-10-10T12:23:41.940Z,17.37
2022-10-10T12:33:41.865Z,17.57
2022-10-10T12:43:41.905Z,17.79
2022-10-10T12:53:41.851Z,18.12
2022-10-10T13:03:41.844Z,18.42
2022-10-10T13:13:41.828Z,18.45
2022-10-10T13:23:41.908Z,18.38
2022-10-10T13:33:41.810Z,18.34
2022-10-10T13:43:41.917Z,18.11
2022-10-10T13:53:41.812Z,18.17
2022-10-10T14:03:41.793Z,18.08
2022-10-10T14:13:41.751Z,18.2
2022-10-10T14:23:41.807Z,18.07
2022-10-10T14:33:41.723Z,17.89
2022-10-10T14:43:45.638Z,17.75
2022-10-10T14:53:41.727Z,17.75
2022-10-10T15:03:42.011Z,17.64
2022-10-10T15:13:41.717Z,17.5
2022-10-10T15:23:41.729Z,17.31
2022-10-10T15:33:41.866Z,17.02
2022-10-10T15:43:41.722Z,16.72
2022-10-10T15:53:41.843Z,16.48
2022-10-10T16:03:41.841Z,16
2022-10-10T16:13:41.646Z,15.38
2022-10-10T16:23:41.689Z,14.86
2022-10-10T16:33:41.629Z,14.43
2022-10-10T16:43:41.655Z,14.1
2022-10-10T16:53:41.775Z,13.89
2022-10-10T17:03:41.637Z,13.57
2022-10-10T17:13:41.607Z,13.16
2022-10-10T17:23:41.617Z,12.94
2022-10-10T17:33:41.597Z,12.73
2022-10-10T17:43:41.760Z,12.49
2022-10-10T17:53:41.594Z,12.36
2022-10-10T18:03:41.646Z,12.2
2022-10-10T18:13:41.591Z,12
2022-10-10T18:23:41.582Z,11.77
2022-10-10T18:33:41.566Z,11.54
2022-10-10T18:43:41.604Z,11.4
2022-10-10T18:53:41.540Z,11.04
2022-10-10T19:03:41.580Z,10.71
2022-10-10T19:13:41.549Z,10.52
2022-10-10T19:23:41.570Z,10.33
2022-10-10T19:33:41.541Z,10.17
2022-10-10T19:43:41.532Z,10.18
2022-10-10T19:53:41.519Z,10.07
2022-10-10T20:03:41.553Z,9.89
2022-10-10T20:13:41.535Z,9.74
2022-10-10T20:23:41.514Z,9.65
2022-10-10T20:33:41.516Z,9.38
2022-10-10T20:43:41.521Z,9.25
2022-10-10T20:53:41.509Z,9.27
2022-10-10T21:03:41.529Z,9.1
2022-10-10T21:13:41.511Z,8.98
2022-10-10T21:23:41.564Z,8.92
2022-10-10T21:33:41.543Z,8.81
2022-10-10T21:43:41.545Z,8.64
2022-10-10T21:53:41.500Z,8.68
2022-10-10T22:03:41.501Z,8.77
2022-10-10T22:13:41.469Z,8.73
2022-10-10T22:23:43.097Z,8.46
2022-10-10T22:33:41.440Z,8.3
2022-10-10T22:43:41.469Z,8.31
2022-10-10T22:53:41.484Z,8.26
2022-10-10T23:03:41.501Z,8.11
2022-10-10T23:13:41.454Z,7.91
2022-10-10T23:23:41.476Z,7.68
2022-10-10T23:33:41.436Z,7.6
2022-10-10T23:43:41.463Z,7.52
2022-10-10T23:53:41.441Z,7.84
